Time;durP1;ratioP1;P1;durP2;ratioP2;P2;SDS_P1;SDS_P2;PMS_P1;PMS_P2;Temp;Humidity;BMP_temperature;BMP_pressure;BME280_temperature;BME280_humidity;BME280_pressure;Samples;Min_cycle;Max_cycle;Signal;HPM_P1;HPM_P2
2021/11/18 00:01:15;;;;;;;12.50;3.90;;;;;;;6.64;90.90;102245.84;5030619;28;20737;-74
2021/11/18 00:03:41;;;;;;;12.40;3.13;;;;;;;6.65;90.90;102270.47;5030435;28;20183;-74
2021/11/18 00:06:06;;;;;;;14.30;4.20;;;;;;;6.66;90.04;102270.56;5046328;28;20608;-74
2021/11/18 00:08:32;;;;;;;12.93;3.17;;;;;;;6.69;89.80;102274.97;5032619;28;20273;-74
2021/11/18 00:11:00;;;;;;;17.97;4.00;;;;;;;6.69;90.41;102269.88;5033948;28;20193;-74
2021/11/18 00:13:32;;;;;;;12.50;3.10;;;;;;;6.67;90.68;102276.53;5048879;28;20194;-74
2021/11/18 00:15:58;;;;;;;13.10;3.60;;;;;;;6.67;90.17;102282.50;5044856;28;20241;-73
2021/11/18 00:18:26;;;;;;;15.53;3.23;;;;;;;6.67;90.71;102281.63;5031554;28;20202;-75
2021/11/18 00:20:58;;;;;;;13.17;3.47;;;;;;;6.69;90.28;102295.31;5041418;28;20225;-74
2021/11/18 00:23:29;;;;;;;9.73;3.33;;;;;;;6.69;90.70;102283.50;5045385;28;20198;-75
2021/11/18 00:25:55;;;;;;;10.50;3.30;;;;;;;6.69;91.04;102288.56;5028820;28;20559;-75
2021/11/18 00:28:21;;;;;;;12.27;3.60;;;;;;;6.68;90.55;102283.41;5029833;28;20194;-74
2021/11/18 00:30:47;;;;;;;14.03;4.17;;;;;;;6.66;89.70;102287.50;5036437;28;20193;-75
2021/11/18 00:33:13;;;;;;;12.50;3.50;;;;;;;6.59;89.47;102281.16;5048455;28;20673;-74
2021/11/18 00:35:38;;;;;;;20.17;3.90;;;;;;;6.57;89.53;102277.69;5034402;28;20198;-74
2021/11/18 00:38:06;;;;;;;17.70;4.00;;;;;;;6.51;89.35;102279.88;5028225;28;20206;-75
2021/11/18 00:40:38;;;;;;;14.50;3.97;;;;;;;6.48;89.79;102276.25;5026847;28;20229;-74
2021/11/18 00:43:07;;;;;;;10.13;3.57;;;;;;;6.50;89.49;102278.09;5028614;28;20278;-74
2021/11/18 00:45:34;;;;;;;13.30;3.80;;;;;;;6.46;90.12;102276.19;5028831;28;20178;-73
2021/11/18 00:48:01;;;;;;;13.90;3.60;;;;;;;6.41;90.38;102277.56;5033128;28;20216;-74
2021/11/18 00:50:30;;;;;;;18.57;4.07;;;;;;;6.42;90.05;102281.00;5029578;28;20210;-74
2021/11/18 00:52:56;;;;;;;14.67;3.63;;;;;;;6.40;89.94;102282.56;5029812;28;20193;-74
2021/11/18 00:55:24;;;;;;;18.23;3.97;;;;;;;6.39;90.73;102280.78;5046550;28;20185;-72
2021/11/18 00:57:52;;;;;;;13.77;3.70;;;;;;;6.35;90.04;102274.66;5040841;28;20212;-74
2021/11/18 01:00:21;;;;;;;14.90;4.00;;;;;;;6.36;90.32;102286.59;5032595;28;20225;-73
2021/11/18 01:02:47;;;;;;;13.37;3.47;;;;;;;6.36;90.43;102278.94;5031242;28;20184;-73
2021/11/18 01:05:14;;;;;;;12.87;3.27;;;;;;;6.34;90.36;102284.75;5048119;28;20570;-74
2021/11/18 01:07:42;;;;;;;16.60;3.87;;;;;;;6.32;90.40;102274.50;5028020;28;20236;-73
2021/11/18 01:10:10;;;;;;;13.97;3.27;;;;;;;6.29;90.40;102274.31;5028061;28;20202;-73
2021/11/18 01:12:39;;;;;;;14.57;3.83;;;;;;;6.29;90.53;102275.97;5026853;28;20177;-74
2021/11/18 01:15:06;;;;;;;14.20;3.83;;;;;;;6.29;90.64;102281.94;5028349;28;20182;-74
2021/11/18 01:17:32;;;;;;;18.83;4.23;;;;;;;6.29;90.74;102281.03;5028437;28;20191;-74
2021/11/18 01:19:57;;;;;;;20.77;3.73;;;;;;;6.29;90.28;102286.13;5011663;28;20216;-73
2021/11/18 01:22:23;;;;;;;22.33;5.03;;;;;;;6.24;90.89;102280.78;5025075;28;20213;-74
2021/11/18 01:24:49;;;;;;;13.53;4.17;;;;;;;6.24;90.89;102280.78;5011809;28;20720;-73
2021/11/18 01:27:21;;;;;;;16.87;3.53;;;;;;;6.22;90.48;102281.50;5028579;28;20285;-74
2021/11/18 01:29:46;;;;;;;17.03;3.20;;;;;;;6.19;90.87;102282.19;5045346;28;20750;-74
2021/11/18 01:32:13;;;;;;;13.97;3.90;;;;;;;6.17;91.05;102287.97;5039169;28;20273;-74
2021/11/18 01:34:42;;;;;;;13.40;3.80;;;;;;;6.14;90.87;102288.66;5031956;28;20244;-74
2021/11/18 01:37:08;;;;;;;12.23;3.57;;;;;;;6.11;90.98;102285.03;5046048;28;20229;-74
2021/11/18 01:39:34;;;;;;;16.33;4.07;;;;;;;6.08;90.59;102293.34;5031126;28;20233;-73
2021/11/18 01:42:00;;;;;;;19.10;3.97;;;;;;;6.00;91.25;102297.13;5041183;28;20249;-73
2021/11/18 01:44:33;;;;;;;18.60;5.13;;;;;;;5.98;91.65;102296.13;5031693;28;20646;-74
2021/11/18 01:47:01;;;;;;;17.23;4.03;;;;;;;5.95;90.58;102300.16;5041776;28;20650;-73
2021/11/18 01:49:27;;;;;;;14.73;3.53;;;;;;;5.93;91.29;102309.34;5031386;28;20206;-73
2021/11/18 01:51:56;;;;;;;17.67;4.37;;;;;;;5.91;91.35;102316.91;5040811;28;20662;-74
2021/11/18 01:54:27;;;;;;;24.23;4.50;;;;;;;5.93;91.08;102315.31;5035878;28;20196;-74
2021/11/18 01:56:54;;;;;;;14.93;4.03;;;;;;;5.89;91.47;102309.97;5046718;28;20309;-73
2021/11/18 01:59:30;;;;;;;15.07;3.93;;;;;;;5.87;91.38;102314.06;5046463;28;20210;-74
2021/11/18 02:02:15;;;;;;;18.03;3.97;;;;;;;5.82;91.32;102308.69;5036210;28;20186;-71
2021/11/18 02:05:29;;;;;;;16.97;4.60;;;;;;;5.87;91.22;102303.88;4990781;28;20218;-73
2021/11/18 02:07:58;;;;;;;16.37;4.03;;;;;;;5.88;91.13;102301.44;5027930;28;20186;-72
2021/11/18 02:10:52;;;;;;;17.57;4.03;;;;;;;5.88;91.98;102310.72;5033438;28;20277;-74
2021/11/18 02:13:20;;;;;;;14.13;3.77;;;;;;;5.85;91.62;102303.78;5032824;28;20182;-72
2021/11/18 02:15:56;;;;;;;18.93;5.00;;;;;;;5.83;92.17;102307.91;5031469;28;20198;-72
2021/11/18 02:18:24;;;;;;;17.33;4.50;;;;;;;5.87;92.10;102316.59;5032081;28;20198;-73
2021/11/18 02:20:57;;;;;;;20.70;4.83;;;;;;;5.91;92.37;102316.91;5051354;23;20222;-75
2021/11/18 02:23:32;;;;;;;21.13;5.10;;;;;;;5.88;92.08;102306.53;5031110;28;20229;-75
2021/11/18 02:25:58;;;;;;;16.40;4.07;;;;;;;5.87;91.45;102302.25;5018918;28;20205;-75
2021/11/18 02:28:27;;;;;;;15.10;4.57;;;;;;;5.86;92.46;102302.13;5011402;28;20179;-74
2021/11/18 02:30:54;;;;;;;18.30;5.07;;;;;;;5.88;92.28;102298.91;4996321;28;20187;-75
2021/11/18 02:33:21;;;;;;;20.53;4.47;;;;;;;5.88;91.59;102298.91;5014096;28;20269;-75
2021/11/18 02:35:47;;;;;;;18.87;3.80;;;;;;;5.89;91.72;102298.13;5031026;28;20243;-75
2021/11/18 02:38:14;;;;;;;19.17;5.20;;;;;;;5.93;92.34;102292.44;5031332;28;20674;-75
2021/11/18 02:40:41;;;;;;;15.97;4.63;;;;;;;5.94;91.50;102290.78;5013051;28;20274;-75
2021/11/18 02:43:07;;;;;;;14.13;4.03;;;;;;;5.95;91.54;102300.16;4994680;28;20217;-75
2021/11/18 02:45:35;;;;;;;17.50;4.43;;;;;;;5.95;92.09;102295.94;5012626;28;20648;-74
2021/11/18 02:48:03;;;;;;;19.80;4.50;;;;;;;5.98;91.64;102295.28;5014207;28;20190;-74
2021/11/18 02:50:34;;;;;;;19.87;3.83;;;;;;;6.03;91.19;102289.66;5030155;28;20190;-74
2021/11/18 02:53:00;;;;;;;17.60;4.07;;;;;;;6.03;91.87;102288.81;5024374;28;20225;-74
2021/11/18 02:55:36;;;;;;;23.13;5.73;;;;;;;6.03;92.22;102289.66;5010799;28;20186;-75
2021/11/18 02:58:03;;;;;;;15.13;3.70;;;;;;;6.06;91.03;102296.59;5011737;28;20250;-75
2021/11/18 03:00:52;;;;;;;16.43;4.63;;;;;;;6.06;91.47;102291.50;5018433;28;20639;-75
2021/11/18 03:03:17;;;;;;;14.17;3.80;;;;;;;6.08;91.96;102300.13;5044690;28;20208;-74
2021/11/18 03:05:45;;;;;;;14.10;4.50;;;;;;;6.08;91.59;102298.44;5010438;28;20187;-75
2021/11/18 03:08:10;;;;;;;17.17;4.50;;;;;;;6.12;91.69;102290.22;5011965;28;20171;-74
2021/11/18 03:10:37;;;;;;;17.10;4.90;;;;;;;6.11;92.25;102297.75;5010726;28;20199;-74
2021/11/18 03:13:03;;;;;;;16.80;4.57;;;;;;;6.11;91.98;102308.81;5010582;28;20199;-75
2021/11/18 03:15:29;;;;;;;12.80;4.13;;;;;;;6.14;91.53;102306.47;5010375;28;20175;-74
2021/11/18 03:17:54;;;;;;;22.57;4.50;;;;;;;6.14;91.83;102293.75;5017840;28;20573;-74
2021/11/18 03:20:25;;;;;;;13.07;4.27;;;;;;;6.16;92.35;102296.34;5010859;28;20281;-74
2021/11/18 03:22:52;;;;;;;22.60;5.00;;;;;;;6.16;91.86;102287.06;4994243;28;20207;-74
2021/11/18 03:25:21;;;;;;;15.17;4.17;;;;;;;6.16;92.16;102296.34;5010464;28;20194;-75
2021/11/18 03:27:48;;;;;;;17.57;4.70;;;;;;;6.18;91.80;102298.19;5010381;28;20667;-75
2021/11/18 03:30:25;;;;;;;18.57;4.50;;;;;;;6.19;92.16;102296.53;5010560;28;20183;-75
2021/11/18 03:32:52;;;;;;;13.63;3.53;;;;;;;6.18;91.27;102303.28;5014424;28;20242;-74
2021/11/18 03:35:20;;;;;;;16.40;4.63;;;;;;;6.22;91.95;102305.22;4994049;28;20175;-75
2021/11/18 03:37:47;;;;;;;15.73;4.17;;;;;;;6.24;92.01;102297.69;5010012;28;20214;-75
2021/11/18 03:40:13;;;;;;;17.20;4.87;;;;;;;6.24;92.26;102298.59;4993597;28;20191;-75
2021/11/18 03:42:39;;;;;;;14.07;4.63;;;;;;;6.26;91.87;102304.63;5025054;28;20213;-75
2021/11/18 03:45:05;;;;;;;19.13;5.00;;;;;;;6.30;91.98;102315.84;5022921;28;20601;-75
2021/11/18 03:47:31;;;;;;;17.60;4.23;;;;;;;6.35;92.45;102309.41;5026023;28;20187;-75
2021/11/18 03:49:57;;;;;;;15.30;4.70;;;;;;;6.39;92.45;102309.66;5010070;28;20249;-75
2021/11/18 03:52:23;;;;;;;14.77;4.07;;;;;;;6.41;92.37;102315.72;5021455;28;20245;-75
2021/11/18 03:54:50;;;;;;;23.27;6.00;;;;;;;6.42;93.02;102314.94;5029751;28;20186;-75
2021/11/18 03:57:16;;;;;;;13.70;3.90;;;;;;;6.48;93.16;102315.31;5025124;28;20210;-75
2021/11/18 03:59:49;;;;;;;20.20;5.27;;;;;;;6.50;92.75;102311.16;4995347;28;20753;-75
2021/11/18 04:02:17;;;;;;;20.73;5.13;;;;;;;6.54;92.61;102312.25;5005978;28;20239;-75
2021/11/18 04:04:48;;;;;;;17.33;4.60;;;;;;;6.58;92.85;102312.50;5010980;28;20683;-74
2021/11/18 04:07:14;;;;;;;18.30;4.10;;;;;;;6.66;93.38;102315.50;5005234;28;20548;-75
2021/11/18 04:09:42;;;;;;;16.10;4.70;;;;;;;6.68;92.72;102314.78;5010391;28;20652;-75
2021/11/18 04:12:10;;;;;;;16.43;4.67;;;;;;;6.73;93.39;102310.84;5009357;28;20330;-74
2021/11/18 04:14:37;;;;;;;16.63;4.73;;;;;;;6.79;93.44;102323.06;5009508;28;20193;-74
2021/11/18 04:17:07;;;;;;;20.50;5.80;;;;;;;6.85;93.16;102321.75;5023740;28;20210;-74
2021/11/18 04:19:32;;;;;;;17.87;4.90;;;;;;;6.89;93.01;102312.59;5018158;28;20195;-74
2021/11/18 04:21:59;;;;;;;18.97;5.57;;;;;;;6.95;93.31;102320.63;5009532;28;20210;-74
2021/11/18 04:24:28;;;;;;;20.30;5.87;;;;;;;6.99;93.17;102314.88;5010282;28;20183;-74
2021/11/18 04:26:54;;;;;;;17.73;5.80;;;;;;;6.99;93.29;102322.53;5009281;28;20187;-75
2021/11/18 04:29:27;;;;;;;18.97;5.90;;;;;;;6.99;93.59;102332.72;5017977;28;20240;-75
2021/11/18 04:32:02;;;;;;;19.73;5.90;;;;;;;6.99;93.02;102331.06;5009119;28;20215;-75
2021/11/18 04:34:29;;;;;;;20.73;7.00;;;;;;;7.04;93.86;102321.16;5009299;28;20193;-75
2021/11/18 04:36:55;;;;;;;18.40;6.77;;;;;;;7.04;93.23;102329.66;5011821;28;20199;-75
2021/11/18 04:39:21;;;;;;;19.27;7.33;;;;;;;7.06;93.95;102333.19;5024509;28;20655;-75
2021/11/18 04:41:46;;;;;;;16.07;7.00;;;;;;;7.05;93.73;102333.09;5018334;28;20218;-75
2021/11/18 04:44:12;;;;;;;26.10;8.20;;;;;;;7.07;94.24;102321.31;5008974;28;20650;-74
2021/11/18 04:46:37;;;;;;;24.77;7.97;;;;;;;7.08;93.75;102329.03;5008750;28;20191;-75
2021/11/18 04:49:04;;;;;;;23.27;8.57;;;;;;;7.09;94.32;102318.06;5008892;28;20202;-75
2021/11/18 04:51:31;;;;;;;23.37;8.47;;;;;;;7.14;94.23;102320.88;5008877;28;20207;-75
2021/11/18 04:53:57;;;;;;;20.23;7.97;;;;;;;7.14;94.09;102323.41;5009731;28;20194;-74
2021/11/18 04:56:27;;;;;;;22.43;8.47;;;;;;;7.14;94.17;102315.78;5008665;28;20191;-74
2021/11/18 04:58:55;;;;;;;26.73;8.70;;;;;;;7.14;93.84;102308.16;5008413;28;20225;-74
2021/11/18 05:01:22;;;;;;;20.13;9.30;;;;;;;7.15;94.76;102314.97;5008781;28;20191;-74
2021/11/18 05:03:50;;;;;;;23.57;9.43;;;;;;;7.13;94.44;102307.25;5015543;28;20178;-74
2021/11/18 05:06:15;;;;;;;25.33;10.00;;;;;;;7.14;93.91;102314.09;5024475;28;20179;-75
2021/11/18 05:08:42;;;;;;;27.23;9.57;;;;;;;7.15;94.29;102308.22;5003619;28;20194;-75
2021/11/18 05:11:09;;;;;;;21.57;9.77;;;;;;;7.15;93.49;102317.53;5021532;28;20563;-75
2021/11/18 05:13:35;;;;;;;26.40;10.40;;;;;;;7.12;94.32;102318.25;5008527;28;20210;-74
2021/11/18 05:16:07;;;;;;;25.37;11.10;;;;;;;7.14;93.02;102313.22;5021402;28;20179;-74
2021/11/18 05:18:33;;;;;;;26.17;11.30;;;;;;;7.13;93.55;102317.44;5021137;28;20265;-74
2021/11/18 05:21:00;;;;;;;23.97;11.40;;;;;;;7.12;93.50;102328.41;5014590;28;20222;-75
2021/11/18 05:23:27;;;;;;;29.50;12.00;;;;;;;7.14;93.11;102328.50;5024728;28;20199;-75
2021/11/18 05:25:59;;;;;;;24.10;11.97;;;;;;;7.10;93.66;102326.59;5008518;28;20191;-75
2021/11/18 05:28:26;;;;;;;27.00;12.93;;;;;;;7.16;93.15;102340.53;5008314;28;20184;-75
2021/11/18 05:30:52;;;;;;;36.13;12.70;;;;;;;7.13;92.94;102344.56;5000027;28;20183;-74
2021/11/18 05:33:21;;;;;;;32.37;12.50;;;;;;;7.11;93.31;102344.50;5020621;28;20214;-75
2021/11/18 05:35:46;;;;;;;30.40;13.00;;;;;;;7.14;93.37;102342.09;5008426;28;20652;-74
2021/11/18 05:38:13;;;;;;;32.37;14.57;;;;;;;7.16;94.12;102329.47;5020111;28;20705;-75
2021/11/18 05:40:44;;;;;;;24.80;13.23;;;;;;;7.13;93.38;102332.72;5012100;28;20194;-75
2021/11/18 05:43:14;;;;;;;29.13;13.50;;;;;;;7.15;93.82;102328.59;5027947;28;20293;-75
2021/11/18 05:45:40;;;;;;;28.67;13.77;;;;;;;7.19;93.68;102337.28;5026545;28;20193;-75
2021/11/18 05:48:15;;;;;;;34.13;15.10;;;;;;;7.21;93.66;102335.69;5027891;28;20178;-74
2021/11/18 05:50:46;;;;;;;28.80;13.43;;;;;;;7.20;93.39;102342.47;5024579;28;20194;-75
2021/11/18 05:53:14;;;;;;;31.60;15.13;;;;;;;7.27;93.93;102347.13;5008200;28;20582;-75
2021/11/18 05:55:39;;;;;;;36.00;14.77;;;;;;;7.27;93.64;102342.00;5008064;28;20175;-75
2021/11/18 05:58:06;;;;;;;30.77;14.77;;;;;;;7.24;93.26;102346.94;5007806;28;20580;-75
2021/11/18 06:00:34;;;;;;;36.50;13.67;;;;;;;7.22;93.64;102351.06;5008077;28;20199;-74
2021/11/18 06:02:59;;;;;;;29.63;14.20;;;;;;;7.20;93.34;102345.03;5008324;28;20645;-75
2021/11/18 06:05:27;;;;;;;35.83;13.73;;;;;;;7.25;93.12;102356.34;5008145;28;20183;-74
2021/11/18 06:07:54;;;;;;;25.77;13.30;;;;;;;7.24;93.54;102352.03;5017763;28;20213;-75
2021/11/18 06:10:21;;;;;;;33.00;13.70;;;;;;;7.24;92.88;102361.34;5024310;28;20196;-75
2021/11/18 06:12:46;;;;;;;33.23;13.47;;;;;;;7.30;93.50;102360.03;5008294;28;20214;-75
2021/11/18 06:15:24;;;;;;;37.40;14.80;;;;;;;7.30;93.32;102365.13;5027851;28;20189;-75
2021/11/18 06:17:49;;;;;;;34.80;14.50;;;;;;;7.35;93.79;102375.56;5027589;28;20214;-75
2021/11/18 06:20:15;;;;;;;33.37;14.30;;;;;;;7.37;93.74;102376.56;5030576;28;20720;-75
2021/11/18 06:22:42;;;;;;;32.13;14.03;;;;;;;7.40;92.91;102364.84;5014620;28;20218;-74
2021/11/18 06:25:14;;;;;;;31.10;13.40;;;;;;;7.40;92.85;102371.59;5031010;28;20545;-74
2021/11/18 06:27:41;;;;;;;31.63;13.60;;;;;;;7.39;92.82;102368.19;5027791;28;20253;-74
2021/11/18 06:30:15;;;;;;;29.40;13.80;;;;;;;7.42;93.08;102378.53;4995044;28;20198;-75
2021/11/18 06:32:41;;;;;;;29.77;13.13;;;;;;;7.46;93.27;102387.25;5011329;28;20203;-75
2021/11/18 06:35:08;;;;;;;34.20;13.97;;;;;;;7.45;93.09;102372.72;5011354;28;20182;-74
2021/11/18 06:37:33;;;;;;;36.20;13.37;;;;;;;7.47;93.75;102378.81;5010946;28;20222;-74
2021/11/18 06:39:58;;;;;;;32.00;14.50;;;;;;;7.45;93.48;102373.63;5012790;28;20182;-74
2021/11/18 06:42:26;;;;;;;32.03;14.27;;;;;;;7.49;93.09;102383.22;5011326;28;20302;-74
2021/11/18 06:45:20;;;;;;;31.50;15.03;;;;;;;7.50;93.35;102394.25;5011310;28;20242;-74
2021/11/18 06:47:48;;;;;;;29.67;14.20;;;;;;;7.53;93.19;102395.34;5011045;28;20183;-74
2021/11/18 06:50:14;;;;;;;32.37;14.87;;;;;;;7.52;92.47;102392.69;5011112;28;20221;-74
2021/11/18 06:52:39;;;;;;;35.80;15.60;;;;;;;7.52;93.14;102402.88;5019898;28;20272;-75
2021/11/18 06:55:06;;;;;;;28.27;14.23;;;;;;;7.54;93.68;102386.88;5011068;28;20274;-75
2021/11/18 06:57:32;;;;;;;40.20;15.93;;;;;;;7.54;92.97;102391.09;5027368;28;20211;-74
2021/11/18 06:59:57;;;;;;;26.37;14.13;;;;;;;7.56;92.35;102400.59;5029677;28;20244;-74
2021/11/18 07:02:24;;;;;;;34.93;14.93;;;;;;;7.59;92.45;102403.31;5030502;28;20217;-74
2021/11/18 07:04:51;;;;;;;35.67;15.37;;;;;;;7.61;92.26;102403.41;5014136;28;20210;-74
2021/11/18 07:07:17;;;;;;;34.70;15.27;;;;;;;7.63;92.78;102406.91;5030499;28;20252;-74
2021/11/18 07:09:45;;;;;;;30.97;14.60;;;;;;;7.64;93.21;102407.00;5030145;28;20186;-74
2021/11/18 07:12:18;;;;;;;33.27;13.97;;;;;;;7.65;93.50;102406.19;5027101;28;20582;-75
2021/11/18 07:14:45;;;;;;;35.70;15.43;;;;;;;7.64;93.42;102407.00;5010576;28;20209;-75
2021/11/18 07:17:10;;;;;;;37.97;15.67;;;;;;;7.65;93.01;102408.75;5010409;28;20211;-74
2021/11/18 07:19:36;;;;;;;33.20;15.13;;;;;;;7.67;92.50;102406.28;5010161;28;20248;-74
2021/11/18 07:22:03;;;;;;;39.27;15.87;;;;;;;7.67;92.61;102398.63;4994009;28;20699;-74
2021/11/18 07:24:48;;;;;;;33.77;14.93;;;;;;;7.69;91.94;102397.94;5011606;28;20754;-74
2021/11/18 07:27:13;;;;;;;40.37;14.53;;;;;;;7.73;92.89;102392.22;5009767;28;20187;-75
2021/11/18 07:29:39;;;;;;;31.10;15.00;;;;;;;7.75;92.26;102397.41;5009764;28;20194;-74
2021/11/18 07:32:05;;;;;;;32.10;15.47;;;;;;;7.77;92.03;102400.91;5009132;28;20215;-75
2021/11/18 07:34:30;;;;;;;26.77;14.20;;;;;;;7.79;92.14;102412.09;5010335;28;20190;-74
2021/11/18 07:37:03;;;;;;;33.40;14.97;;;;;;;7.84;91.91;102419.16;5010069;28;20564;-74
2021/11/18 07:39:29;;;;;;;40.27;15.10;;;;;;;7.85;91.77;102423.50;5009905;28;20675;-75
2021/11/18 07:41:55;;;;;;;33.37;14.70;;;;;;;7.83;92.26;102431.84;5011280;28;20238;-75
2021/11/18 07:44:39;;;;;;;32.37;14.37;;;;;;;7.86;92.03;102424.34;5011792;28;20296;-75
2021/11/18 07:47:37;;;;;;;30.53;13.70;;;;;;;7.88;92.33;102427.88;5001991;28;20199;-74
2021/11/18 07:50:07;;;;;;;30.63;13.03;;;;;;;7.90;91.78;102433.94;5009783;28;20206;-74
2021/11/18 07:52:34;;;;;;;32.37;13.77;;;;;;;7.92;92.08;102427.28;5009706;28;20211;-75
2021/11/18 07:55:00;;;;;;;34.50;13.00;;;;;;;7.92;91.67;102433.22;5009905;28;20265;-74
2021/11/18 07:57:27;;;;;;;32.43;13.17;;;;;;;7.97;91.90;102426.72;5009820;28;20314;-74
2021/11/18 07:59:53;;;;;;;28.70;14.17;;;;;;;8.00;91.70;102421.78;5009591;28;20585;-75
2021/11/18 08:02:20;;;;;;;38.60;14.00;;;;;;;8.02;91.34;102420.19;5009708;28;20211;-75
2021/11/18 08:04:45;;;;;;;37.50;13.57;;;;;;;8.04;91.43;102427.94;5010090;28;20278;-75
2021/11/18 08:07:11;;;;;;;29.83;13.17;;;;;;;8.05;91.65;102430.56;5009997;28;20198;-74
2021/11/18 08:09:36;;;;;;;33.63;12.70;;;;;;;8.06;92.25;102418.69;5010049;28;20201;-75
2021/11/18 08:12:04;;;;;;;37.13;14.27;;;;;;;8.08;91.50;102419.66;5022804;28;20206;-74
2021/11/18 08:14:32;;;;;;;38.17;14.23;;;;;;;8.08;92.27;102430.75;5019225;28;20233;-74
2021/11/18 08:16:58;;;;;;;32.87;14.83;;;;;;;8.08;91.86;102410.34;5009442;28;20187;-74
2021/11/18 08:19:24;;;;;;;41.40;14.80;;;;;;;8.10;91.82;102402.75;5010448;28;20191;-74
2021/11/18 08:21:54;;;;;;;34.70;14.77;;;;;;;8.12;91.64;102404.63;5009121;28;20207;-75
2021/11/18 08:24:25;;;;;;;30.93;14.70;;;;;;;8.18;91.89;102422.78;4993663;28;20652;-74
2021/11/18 08:26:53;;;;;;;31.13;15.77;;;;;;;8.21;91.60;102414.47;5009242;28;20183;-74
2021/11/18 08:29:21;;;;;;;37.30;16.83;;;;;;;8.25;91.70;102422.34;4992766;28;20198;-74
2021/11/18 08:31:48;;;;;;;33.77;15.73;;;;;;;8.30;91.64;102420.06;5010042;28;20364;-76
2021/11/18 08:34:28;;;;;;;38.60;16.23;;;;;;;8.34;91.72;102432.19;5009657;28;20191;-75
2021/11/18 08:37:02;;;;;;;37.87;16.33;;;;;;;8.37;91.83;102427.22;5009687;28;20290;-75
2021/11/18 08:39:28;;;;;;;32.80;16.87;;;;;;;8.41;91.58;102421.50;5025407;28;20217;-75
2021/11/18 08:41:58;;;;;;;35.20;17.67;;;;;;;8.48;92.11;102415.94;5008398;28;20210;-75
2021/11/18 08:44:26;;;;;;;37.40;16.43;;;;;;;8.51;91.44;102422.06;5010742;28;20237;-75
2021/11/18 08:46:55;;;;;;;34.03;16.73;;;;;;;8.55;91.79;102424.00;5028584;28;20190;-75
2021/11/18 08:49:23;;;;;;;33.87;15.57;;;;;;;8.60;91.70;102425.09;5025105;28;20214;-74
2021/11/18 08:51:51;;;;;;;34.53;16.07;;;;;;;8.64;91.85;102415.91;4995828;28;20284;-76
2021/11/18 08:54:23;;;;;;;39.27;15.33;;;;;;;8.69;91.61;102419.59;5014572;28;20285;-74
2021/11/18 08:56:53;;;;;;;35.77;14.70;;;;;;;8.75;90.65;102415.69;5018053;28;20186;-75
2021/11/18 08:59:20;;;;;;;36.03;16.43;;;;;;;8.80;90.71;102421.91;5016097;28;20202;-74
2021/11/18 09:01:54;;;;;;;41.70;15.83;;;;;;;8.98;90.80;102417.72;5016644;28;20742;-71
2021/11/18 09:04:24;;;;;;;33.23;14.60;;;;;;;9.07;90.01;102423.31;5011347;28;20187;-71
2021/11/18 09:06:51;;;;;;;39.80;14.23;;;;;;;9.21;89.44;102418.91;5022819;28;20328;-72
2021/11/18 09:09:18;;;;;;;28.57;13.67;;;;;;;9.35;88.29;102421.34;5023044;28;20213;-76
2021/11/18 09:11:45;;;;;;;37.47;13.97;;;;;;;9.26;88.43;102422.56;5017764;28;20229;-75
2021/11/18 09:14:11;;;;;;;32.80;13.17;;;;;;;9.36;88.57;102417.09;5002438;28;20265;-75
2021/11/18 09:16:39;;;;;;;33.97;13.77;;;;;;;9.55;88.28;102412.97;5019751;28;20282;-75
2021/11/18 09:19:14;;;;;;;33.97;14.33;;;;;;;9.62;87.46;102422.69;5021036;28;20211;-74
2021/11/18 09:21:41;;;;;;;28.03;13.10;;;;;;;9.51;87.22;102431.53;5000341;28;20248;-75
2021/11/18 09:24:14;;;;;;;27.80;12.57;;;;;;;9.40;87.71;102437.78;5019522;28;20668;-75
2021/11/18 09:26:43;;;;;;;36.43;13.77;;;;;;;9.51;87.91;102444.31;5014600;28;20635;-75
2021/11/18 09:29:09;;;;;;;27.70;13.90;;;;;;;9.41;88.06;102438.66;5014783;28;20183;-75
2021/11/18 09:31:59;;;;;;;29.23;13.77;;;;;;;9.38;88.28;102441.06;5031528;28;20233;-75
2021/11/18 09:34:27;;;;;;;34.83;14.73;;;;;;;9.34;88.62;102429.81;5027545;28;20223;-75
2021/11/18 09:36:54;;;;;;;34.27;13.43;;;;;;;9.37;88.74;102431.63;5044792;28;20184;-77
2021/11/18 09:39:22;;;;;;;26.90;13.20;;;;;;;9.51;88.12;102434.09;5019801;28;20269;-74
2021/11/18 09:41:54;;;;;;;32.60;13.93;;;;;;;9.56;87.58;102435.19;5023887;28;20699;-76
2021/11/18 09:44:31;;;;;;;29.07;13.07;;;;;;;9.60;87.12;102438.75;5019420;28;20195;-75
2021/11/18 09:47:43;;;;;;;31.57;13.67;;;;;;;9.62;87.39;102427.81;5013371;28;20281;-76
2021/11/18 09:50:27;;;;;;;29.60;13.33;;;;;;;9.72;87.36;102431.69;4994598;28;20198;-74
2021/11/18 09:53:36;;;;;;;28.27;12.10;;;;;;;9.72;87.24;102429.13;5014617;28;20309;-75
2021/11/18 09:56:39;;;;;;;29.40;12.97;;;;;;;9.74;87.25;102433.53;5015429;28;20618;-75
2021/11/18 09:59:17;;;;;;;35.73;13.57;;;;;;;9.69;87.08;102424.75;5013992;28;20630;-74
2021/11/18 10:02:36;;;;;;;30.17;13.33;;;;;;;9.69;87.34;102445.22;5013932;28;20274;-75
2021/11/18 10:05:28;;;;;;;34.10;12.93;;;;;;;9.68;86.86;102424.66;5005011;28;21148;-74
2021/11/18 10:08:01;;;;;;;35.00;13.87;;;;;;;9.65;87.06;102439.84;5017561;28;20201;-74
2021/11/18 10:10:42;;;;;;;33.13;14.23;;;;;;;9.68;86.94;102425.53;5013022;28;20238;-74
2021/11/18 10:13:20;;;;;;;33.77;13.73;;;;;;;9.70;86.79;102436.72;5026528;28;20210;-75
2021/11/18 10:16:01;;;;;;;29.80;14.07;;;;;;;9.72;86.71;102434.25;5030885;28;20193;-75
2021/11/18 10:18:39;;;;;;;31.40;13.37;;;;;;;9.70;86.86;102425.59;5027561;28;20218;-74
2021/11/18 10:21:18;;;;;;;33.47;14.43;;;;;;;9.68;86.97;102419.56;5012448;28;20206;-75
2021/11/18 10:23:46;;;;;;;28.80;14.10;;;;;;;9.70;86.41;102418.81;5030924;28;20193;-75
2021/11/18 10:26:20;;;;;;;29.43;13.03;;;;;;;9.69;86.62;102414.53;5031254;28;20186;-75
2021/11/18 10:29:26;;;;;;;31.97;13.83;;;;;;;9.77;86.64;102425.97;5030800;28;20697;-75
2021/11/18 10:31:58;;;;;;;35.80;12.73;;;;;;;9.92;86.18;102410.47;5030454;28;20210;-75
2021/11/18 10:34:40;;;;;;;34.93;12.90;;;;;;;10.11;86.18;102403.78;5028510;28;20191;-74
2021/11/18 10:37:11;;;;;;;35.70;13.73;;;;;;;10.12;85.37;102396.94;5030955;28;20544;-76
2021/11/18 10:39:39;;;;;;;29.23;12.60;;;;;;;10.15;85.22;102397.09;5029032;28;20266;-75
2021/11/18 10:42:12;;;;;;;29.37;12.60;;;;;;;10.15;85.53;102397.09;5028461;28;20280;-74
2021/11/18 10:44:49;;;;;;;30.27;13.60;;;;;;;10.09;85.21;102392.56;5029506;28;20273;-74
2021/11/18 10:47:21;;;;;;;29.07;12.93;;;;;;;10.15;85.16;102386.88;5030001;28;20236;-74
2021/11/18 10:49:56;;;;;;;35.63;14.57;;;;;;;10.14;85.10;102385.97;5024021;28;20620;-74
2021/11/18 10:52:37;;;;;;;29.60;13.67;;;;;;;10.09;85.79;102382.34;5028849;28;20213;-74
2021/11/18 10:55:18;;;;;;;38.87;16.10;;;;;;;10.04;85.53;102385.47;5029319;28;20206;-74
2021/11/18 10:57:57;;;;;;;36.70;16.60;;;;;;;10.03;85.38;102384.59;5021112;28;20668;-74
2021/11/18 11:00:44;;;;;;;35.80;16.23;;;;;;;10.12;85.59;102397.84;5011989;28;20269;-74
2021/11/18 11:03:34;;;;;;;38.50;16.67;;;;;;;10.10;85.86;102390.91;5015960;28;20683;-75
2021/11/18 11:06:14;;;;;;;40.23;17.03;;;;;;;10.14;85.33;102377.44;5023309;28;20245;-75
2021/11/18 11:08:42;;;;;;;45.80;16.53;;;;;;;10.33;85.00;102369.78;5029535;28;20717;-74
2021/11/18 11:11:18;;;;;;;34.43;13.30;;;;;;;10.44;83.50;102378.81;5009476;28;20179;-74
2021/11/18 11:14:21;;;;;;;28.90;13.23;;;;;;;10.47;84.04;102373.81;4994722;28;20280;-75
2021/11/18 11:17:24;;;;;;;32.43;11.90;;;;;;;10.46;83.93;102379.75;5030857;28;20670;-75
2021/11/18 11:19:56;;;;;;;27.40;10.37;;;;;;;10.45;83.69;102368.63;5031174;28;20202;-74
2021/11/18 11:22:32;;;;;;;27.20;9.57;;;;;;;10.56;83.48;102358.88;5016385;28;20210;-73
2021/11/18 11:25:07;;;;;;;27.83;9.93;;;;;;;10.70;82.64;102344.97;5011649;28;20195;-75
2021/11/18 11:28:01;;;;;;;20.20;9.20;;;;;;;11.01;82.51;102342.91;5011825;28;20182;-74
2021/11/18 11:30:40;;;;;;;22.63;8.63;;;;;;;10.82;81.49;102351.47;5031291;28;20230;-74
2021/11/18 11:33:32;;;;;;;22.80;8.70;;;;;;;10.87;82.33;102352.56;5031069;28;20225;-75
2021/11/18 11:36:04;;;;;;;25.77;9.20;;;;;;;10.94;81.59;102336.63;5030288;28;20193;-74